createdAt,value
2019-04-07T00:00:29.328Z,99.90
2019-04-07T00:02:58.623Z,99.90
2019-04-07T00:05:27.871Z,99.90
2019-04-07T00:07:57.623Z,99.90
2019-04-07T00:10:27.136Z,99.90
2019-04-07T00:12:57.357Z,99.90
2019-04-07T00:15:27.719Z,99.90
2019-04-07T00:17:57.188Z,99.90
2019-04-07T00:20:26.755Z,99.90
2019-04-07T00:22:55.974Z,99.90
2019-04-07T00:25:25.639Z,99.90
2019-04-07T00:27:55.303Z,99.90
2019-04-07T00:30:24.899Z,99.90
2019-04-07T00:32:54.754Z,99.90
2019-04-07T00:35:30.504Z,99.90
2019-04-07T00:37:55.052Z,99.90
2019-04-07T00:40:25.103Z,99.90
2019-04-07T00:42:54.492Z,99.90
2019-04-07T00:45:23.968Z,99.90
2019-04-07T00:47:53.678Z,99.90
2019-04-07T00:50:24.088Z,99.90
2019-04-07T00:52:53.348Z,99.90
2019-04-07T00:55:23.019Z,99.90
2019-04-07T00:57:52.919Z,99.90
2019-04-07T01:00:24.434Z,99.90
2019-04-07T01:02:54.108Z,99.90
2019-04-07T01:05:34.753Z,99.90
2019-04-07T01:07:55.233Z,99.90
2019-04-07T01:10:24.573Z,99.90
2019-04-07T01:12:54.002Z,99.90
2019-04-07T01:15:24.108Z,99.90
2019-04-07T01:17:53.493Z,99.90
2019-04-07T01:20:24.273Z,99.90
2019-04-07T01:22:53.645Z,99.90
2019-04-07T01:25:23.479Z,99.90
2019-04-07T01:27:53.267Z,99.90
2019-04-07T01:30:22.609Z,99.90
2019-04-07T01:32:52.176Z,99.90
2019-04-07T01:35:21.474Z,99.90
2019-04-07T01:37:51.650Z,99.90
2019-04-07T01:40:21.079Z,99.90
2019-04-07T01:43:01.078Z,99.90
2019-04-07T01:45:49.965Z,99.90
2019-04-07T01:48:26.841Z,99.90
2019-04-07T01:51:31.071Z,99.90
2019-04-07T01:54:19.404Z,99.90
2019-04-07T01:57:02.256Z,99.90
2019-04-07T01:59:51.946Z,99.90
2019-04-07T02:02:42.006Z,99.90
2019-04-07T02:05:57.653Z,99.90
2019-04-07T02:08:24.788Z,99.90
2019-04-07T02:11:14.590Z,99.90
2019-04-07T02:14:02.268Z,99.90
2019-04-07T02:16:49.046Z,99.90
2019-04-07T02:19:28.503Z,99.90
2019-04-07T02:22:16.696Z,99.90
2019-04-07T02:25:02.557Z,99.90
2019-04-07T02:27:57.851Z,99.90
2019-04-07T02:30:52.196Z,99.90
2019-04-07T02:33:39.414Z,99.90
2019-04-07T02:36:29.950Z,99.90
2019-04-07T02:39:11.185Z,99.90
2019-04-07T02:42:07.541Z,99.90
2019-04-07T02:45:01.400Z,99.90
2019-04-07T02:47:45.041Z,99.90
2019-04-07T02:50:30.193Z,99.90
2019-04-07T02:53:22.074Z,99.90
2019-04-07T02:56:09.971Z,99.90
2019-04-07T02:59:01.870Z,99.90
2019-04-07T03:01:39.534Z,99.90
2019-04-07T03:04:26.206Z,99.90
2019-04-07T03:07:14.998Z,99.90
2019-04-07T03:10:18.746Z,99.90
2019-04-07T03:13:06.180Z,99.90
2019-04-07T03:15:57.025Z,99.90
2019-04-07T03:18:55.453Z,99.90
2019-04-07T03:21:53.157Z,99.90
2019-04-07T03:24:34.871Z,99.90
2019-04-07T03:27:22.173Z,99.90
2019-04-07T03:30:01.061Z,99.90
2019-04-07T03:32:53.250Z,99.90
2019-04-07T03:35:34.131Z,99.90
2019-04-07T03:38:37.017Z,99.90
2019-04-07T03:41:15.104Z,99.90
2019-04-07T03:44:08.258Z,99.90
2019-04-07T03:46:55.739Z,99.90
2019-04-07T03:49:43.195Z,99.90
2019-04-07T03:52:19.390Z,99.90
2019-04-07T03:55:15.243Z,99.90
2019-04-07T03:58:03.621Z,99.90
2019-04-07T04:01:25.531Z,99.90
2019-04-07T04:04:24.151Z,99.90
2019-04-07T04:07:00.216Z,99.90
2019-04-07T04:09:58.279Z,99.90
2019-04-07T04:12:53.031Z,99.90
2019-04-07T04:15:28.637Z,99.90
2019-04-07T04:17:58.193Z,99.90
2019-04-07T04:20:28.272Z,99.90
2019-04-07T04:22:58.320Z,99.90
2019-04-07T04:25:27.654Z,99.90
2019-04-07T04:27:57.014Z,99.90
2019-04-07T04:30:27.657Z,99.90
2019-04-07T04:32:57.041Z,99.90
2019-04-07T04:35:26.624Z,99.90
2019-04-07T04:37:56.569Z,99.90
2019-04-07T04:40:26.126Z,99.90
2019-04-07T04:42:55.295Z,99.90
2019-04-07T04:45:24.871Z,99.90
2019-04-07T04:47:54.041Z,99.90
2019-04-07T04:50:23.738Z,99.90
2019-04-07T04:52:53.277Z,99.90
2019-04-07T04:55:22.901Z,99.90
2019-04-07T04:57:52.507Z,99.90
2019-04-07T05:00:22.099Z,99.90
2019-04-07T05:02:51.426Z,99.90
2019-04-07T05:05:21.203Z,99.90
2019-04-07T05:07:59.227Z,99.90
2019-04-07T05:10:22.309Z,99.90
2019-04-07T05:12:51.620Z,99.90
2019-04-07T05:15:21.048Z,99.90
2019-04-07T05:17:50.415Z,99.90
2019-04-07T05:20:19.993Z,99.90
2019-04-07T05:22:49.186Z,99.90
2019-04-07T05:25:19.550Z,99.90
2019-04-07T05:27:49.245Z,99.90
2019-04-07T05:30:18.912Z,99.90
2019-04-07T05:32:49.048Z,99.90
2019-04-07T05:35:18.781Z,99.90
2019-04-07T05:38:00.168Z,99.90
2019-04-07T05:40:20.121Z,99.90
2019-04-07T05:42:49.722Z,99.90
2019-04-07T05:45:18.953Z,99.90
2019-04-07T05:47:50.417Z,99.90
2019-04-07T05:50:20.048Z,99.90
2019-04-07T05:52:49.952Z,99.90
2019-04-07T05:55:21.814Z,99.90
2019-04-07T05:57:50.636Z,99.90
2019-04-07T06:00:19.890Z,99.90
2019-04-07T06:02:49.038Z,99.90
2019-04-07T06:05:18.741Z,99.90
2019-04-07T06:07:48.749Z,99.90
2019-04-07T06:10:18.388Z,99.90
2019-04-07T06:12:49.492Z,99.90
2019-04-07T06:15:22.069Z,99.90
2019-04-07T06:17:50.273Z,99.90
2019-04-07T06:20:19.911Z,99.90
2019-04-07T06:22:52.821Z,99.90
2019-04-07T06:25:20.844Z,99.90
2019-04-07T06:27:51.050Z,99.90
2019-04-07T06:30:22.075Z,99.90
2019-04-07T06:32:51.566Z,99.90
2019-04-07T06:35:20.975Z,99.90
2019-04-07T06:37:50.785Z,99.90
2019-04-07T06:40:22.220Z,99.90
2019-04-07T06:42:52.003Z,99.90
2019-04-07T06:45:25.138Z,99.90
2019-04-07T06:47:56.818Z,99.90
2019-04-07T06:50:59.332Z,99.90
2019-04-07T06:53:56.941Z,99.90
2019-04-07T06:56:35.768Z,99.90
2019-04-07T06:59:20.446Z,99.90
2019-04-07T07:02:07.522Z,99.90
2019-04-07T07:04:56.160Z,99.90
2019-04-07T07:07:56.428Z,99.90
2019-04-07T07:10:41.860Z,99.90
2019-04-07T07:13:29.916Z,99.90
2019-04-07T07:16:28.674Z,99.90
2019-04-07T07:19:15.171Z,99.90
2019-04-07T07:22:06.494Z,99.90
2019-04-07T07:24:34.865Z,99.90
2019-04-07T07:27:07.303Z,99.90
2019-04-07T07:29:35.345Z,99.90
2019-04-07T07:32:04.968Z,99.90
2019-04-07T07:34:34.302Z,99.90
2019-04-07T07:37:04.038Z,99.90
2019-04-07T07:39:34.093Z,99.90
2019-04-07T07:42:04.071Z,99.90
2019-04-07T07:44:35.880Z,99.90
2019-04-07T07:47:04.791Z,99.90
2019-04-07T07:49:36.078Z,99.90
2019-04-07T07:52:05.010Z,99.90
2019-04-07T07:54:35.129Z,99.90
2019-04-07T07:57:05.229Z,99.90
2019-04-07T07:59:37.983Z,99.90
2019-04-07T08:02:06.280Z,99.90
2019-04-07T08:04:35.608Z,99.90
2019-04-07T08:07:06.606Z,99.90
2019-04-07T08:09:35.981Z,99.90
2019-04-07T08:12:05.238Z,99.90
2019-04-07T08:14:34.975Z,99.90
2019-04-07T08:17:04.632Z,99.90
2019-04-07T08:19:34.510Z,99.90
2019-04-07T08:22:04.758Z,99.90
2019-04-07T08:24:35.134Z,99.90
2019-04-07T08:27:05.174Z,99.90
2019-04-07T08:29:37.095Z,99.90
2019-04-07T08:32:06.530Z,99.90
2019-04-07T08:34:37.139Z,99.90
2019-04-07T08:37:06.518Z,99.90
2019-04-07T08:39:36.534Z,99.90
2019-04-07T08:42:10.716Z,99.90
2019-04-07T08:44:38.597Z,99.90
2019-04-07T08:47:41.336Z,99.90
2019-04-07T08:50:11.014Z,99.90
2019-04-07T08:52:42.679Z,99.90
2019-04-07T08:55:11.666Z,99.90
2019-04-07T08:57:41.286Z,99.90
2019-04-07T09:00:17.268Z,99.90
2019-04-07T09:02:46.503Z,99.90
2019-04-07T09:05:20.563Z,99.90
2019-04-07T09:07:48.816Z,99.90
2019-04-07T09:10:23.419Z,99.90
2019-04-07T09:12:52.667Z,99.90
2019-04-07T09:15:45.302Z,99.90
2019-04-07T09:18:20.468Z,99.90
2019-04-07T09:21:13.382Z,99.90
2019-04-07T09:23:50.704Z,99.90
2019-04-07T09:26:34.355Z,99.90
2019-04-07T09:29:10.480Z,99.90
2019-04-07T09:31:57.607Z,99.90
2019-04-07T09:34:38.136Z,99.90
2019-04-07T09:37:32.379Z,99.90
2019-04-07T09:40:26.739Z,99.90
2019-04-07T09:43:05.647Z,99.90
2019-04-07T09:45:52.260Z,99.90
2019-04-07T09:48:50.926Z,99.90
2019-04-07T09:51:40.362Z,99.90
2019-04-07T09:54:25.818Z,99.90
2019-04-07T09:57:14.089Z,99.90
2019-04-07T10:00:02.539Z,99.90
2019-04-07T10:02:40.115Z,99.90
2019-04-07T10:05:27.638Z,99.90
2019-04-07T10:08:18.271Z,99.90
2019-04-07T10:10:58.356Z,99.90
2019-04-07T10:13:36.814Z,99.90
2019-04-07T10:16:21.186Z,99.90
2019-04-07T10:19:11.382Z,99.90
2019-04-07T10:21:53.474Z,99.90
2019-04-07T10:24:42.109Z,99.90
2019-04-07T10:27:20.517Z,99.90
2019-04-07T10:30:08.764Z,99.90
2019-04-07T10:32:57.437Z,99.90
2019-04-07T10:35:41.054Z,99.90
2019-04-07T10:38:20.120Z,99.90
2019-04-07T10:41:11.867Z,99.90
2019-04-07T10:43:59.033Z,99.90
2019-04-07T10:46:37.468Z,99.90
2019-04-07T10:49:23.688Z,99.90
2019-04-07T10:52:12.677Z,99.90
2019-04-07T10:54:57.283Z,99.90
2019-04-07T10:57:51.613Z,99.90
2019-04-07T11:00:43.592Z,99.90
2019-04-07T11:03:28.371Z,99.90
2019-04-07T11:06:19.494Z,99.90
2019-04-07T11:09:08.812Z,99.90
2019-04-07T11:11:48.129Z,99.90
2019-04-07T11:14:26.942Z,99.90
2019-04-07T11:17:06.584Z,99.90
2019-04-07T11:20:03.795Z,99.90
2019-04-07T11:23:04.570Z,99.90
2019-04-07T11:52:16.602Z,96.70
2019-04-07T11:54:59.751Z,97.10
2019-04-07T11:58:00.672Z,97.20
2019-04-07T12:00:42.011Z,96.50
2019-04-07T12:03:28.924Z,93.90
2019-04-07T12:06:25.198Z,92.50
2019-04-07T12:09:13.726Z,91.60
2019-04-07T12:12:00.863Z,90.00
2019-04-07T12:14:51.252Z,85.90
2019-04-07T12:17:44.889Z,85.10
2019-04-07T12:20:30.085Z,82.00
2019-04-07T12:23:20.713Z,84.20
2019-04-07T12:26:19.261Z,84.80
2019-04-07T12:29:14.204Z,87.00
2019-04-07T12:32:07.295Z,85.20
2019-04-07T12:34:53.535Z,85.00
2019-04-07T12:37:58.390Z,82.50
2019-04-07T12:41:15.138Z,82.00
2019-04-07T12:44:13.798Z,81.50
2019-04-07T12:47:01.783Z,82.40
2019-04-07T12:49:50.189Z,79.60
2019-04-07T12:52:45.167Z,81.50
2019-04-07T12:55:22.184Z,80.30
2019-04-07T12:58:09.778Z,79.40
2019-04-07T13:00:54.804Z,80.00
2019-04-07T13:03:26.302Z,78.40
2019-04-07T13:06:08.046Z,77.80
2019-04-07T13:08:47.989Z,79.90
2019-04-07T13:11:33.952Z,80.30
2019-04-07T13:14:08.207Z,80.80
2019-04-07T13:16:56.492Z,82.60
2019-04-07T13:19:31.145Z,83.50
2019-04-07T13:22:15.134Z,83.50
2019-04-07T13:25:06.198Z,86.90
2019-04-07T13:27:57.748Z,90.60
2019-04-07T13:30:45.527Z,90.40
2019-04-07T13:33:40.157Z,90.00
2019-04-07T13:36:26.777Z,87.70
2019-04-07T13:39:21.399Z,90.10
2019-04-07T13:42:09.968Z,91.10
2019-04-07T13:44:58.303Z,92.10
2019-04-07T13:47:53.404Z,94.00
2019-04-07T13:50:41.946Z,94.20
2019-04-07T13:53:42.146Z,92.90
2019-04-07T13:56:35.345Z,91.70
2019-04-07T13:59:23.686Z,91.80
2019-04-07T14:01:59.143Z,91.70
2019-04-07T14:04:42.431Z,91.60
2019-04-07T14:07:23.022Z,91.40
2019-04-07T14:10:11.287Z,91.60
2019-04-07T14:13:04.134Z,91.00
2019-04-07T14:16:01.430Z,91.80
2019-04-07T14:18:55.937Z,92.90
2019-04-07T14:21:39.709Z,93.40
2019-04-07T14:24:17.198Z,94.40
2019-04-07T14:27:20.845Z,94.30
2019-04-07T14:29:57.105Z,94.50
2019-04-07T14:32:45.329Z,95.50
2019-04-07T14:35:32.055Z,96.50
2019-04-07T14:38:39.924Z,97.00
2019-04-07T14:41:28.068Z,96.80
2019-04-07T14:44:25.877Z,96.60
2019-04-07T14:47:22.860Z,96.50
2019-04-07T14:50:17.681Z,97.50
2019-04-07T14:53:06.601Z,97.20
2019-04-07T14:55:53.508Z,97.30
2019-04-07T14:58:36.922Z,97.30
2019-04-07T15:01:28.185Z,97.60
2019-04-07T15:03:57.740Z,98.30
2019-04-07T15:06:31.154Z,98.60
2019-04-07T15:09:06.554Z,98.50
2019-04-07T15:11:39.541Z,98.30
2019-04-07T15:14:11.166Z,99.20
2019-04-07T15:16:39.710Z,99.80
2019-04-07T15:19:09.590Z,99.90
2019-04-07T15:21:38.951Z,99.20
2019-04-07T15:24:08.614Z,99.80
2019-04-07T15:26:38.996Z,99.50
2019-04-07T15:29:10.694Z,99.90
2019-04-07T15:31:40.623Z,99.90
2019-04-07T15:34:11.762Z,99.90
2019-04-07T15:36:41.449Z,99.90
2019-04-07T15:39:11.036Z,99.90
2019-04-07T15:41:42.525Z,99.90
2019-04-07T15:44:14.061Z,99.90
2019-04-07T15:46:42.663Z,99.90
2019-04-07T15:49:12.692Z,99.90
2019-04-07T15:51:43.555Z,99.90
2019-04-07T15:54:13.516Z,99.90
2019-04-07T15:56:45.399Z,99.90
2019-04-07T15:59:14.755Z,99.90
2019-04-07T16:01:44.721Z,99.90
2019-04-07T16:04:13.987Z,99.90
2019-04-07T16:06:47.009Z,99.90
2019-04-07T16:09:29.713Z,99.90
2019-04-07T16:11:49.325Z,99.90
2019-04-07T16:14:18.254Z,99.90
2019-04-07T16:16:47.908Z,99.90
2019-04-07T16:19:21.386Z,99.90
2019-04-07T16:21:48.263Z,99.90
2019-04-07T16:24:17.892Z,99.90
2019-04-07T16:26:47.893Z,99.90
2019-04-07T16:29:19.039Z,99.90
2019-04-07T16:31:48.934Z,99.90
2019-04-07T16:34:19.304Z,99.90
2019-04-07T16:36:50.977Z,99.90
2019-04-07T16:39:21.002Z,99.90
2019-04-07T16:41:51.220Z,99.90
2019-04-07T16:44:20.600Z,99.90
2019-04-07T16:46:52.080Z,99.90
2019-04-07T16:49:21.655Z,99.90
2019-04-07T16:51:51.550Z,99.90
2019-04-07T16:54:21.428Z,99.90
2019-04-07T16:56:54.930Z,99.90
2019-04-07T16:59:22.016Z,99.90
2019-04-07T17:02:05.677Z,99.90
2019-04-07T17:04:35.036Z,99.90
2019-04-07T17:07:20.798Z,99.90
2019-04-07T17:10:02.352Z,99.90
2019-04-07T17:12:32.347Z,99.90
2019-04-07T17:15:04.512Z,99.90
2019-04-07T17:17:33.652Z,99.90
2019-04-07T17:20:03.600Z,99.90
2019-04-07T17:22:33.774Z,99.90
2019-04-07T17:25:16.538Z,99.90
2019-04-07T17:27:46.534Z,99.90
2019-04-07T17:30:18.776Z,99.90
2019-04-07T17:32:50.089Z,99.90
2019-04-07T17:35:19.998Z,99.90
2019-04-07T17:37:49.844Z,99.90
2019-04-07T17:40:21.518Z,99.90
2019-04-07T17:42:53.047Z,99.90
2019-04-07T17:45:54.580Z,99.90
2019-04-07T17:48:40.158Z,99.90
2019-04-07T17:51:23.860Z,99.90
2019-04-07T17:54:11.140Z,99.90
2019-04-07T17:57:01.154Z,99.90
2019-04-07T17:59:48.132Z,99.90
2019-04-07T18:02:44.738Z,99.90
2019-04-07T18:05:29.762Z,99.90
2019-04-07T18:08:21.892Z,99.90
2019-04-07T18:10:59.696Z,99.90
2019-04-07T18:13:56.690Z,99.90
2019-04-07T18:16:44.636Z,99.90
2019-04-07T18:19:32.855Z,99.90
2019-04-07T18:22:19.657Z,99.90
2019-04-07T18:25:10.563Z,99.90
2019-04-07T18:27:53.329Z,99.90
2019-04-07T18:30:35.779Z,99.90
2019-04-07T18:33:28.027Z,99.90
2019-04-07T18:36:36.004Z,99.90
2019-04-07T18:39:25.982Z,99.90
2019-04-07T18:42:20.866Z,99.90
2019-04-07T18:45:12.265Z,99.90
2019-04-07T18:47:55.747Z,99.90
2019-04-07T18:50:42.245Z,99.90
2019-04-07T18:53:33.579Z,99.90
2019-04-07T18:56:21.611Z,99.90
2019-04-07T18:59:20.203Z,99.90
2019-04-07T19:02:03.255Z,99.90
2019-04-07T19:05:00.166Z,99.90
2019-04-07T19:07:50.737Z,99.90
2019-04-07T19:10:32.349Z,99.90
2019-04-07T19:13:15.948Z,99.90
2019-04-07T19:16:04.644Z,99.90
2019-04-07T19:19:02.742Z,99.90
2019-04-07T19:21:38.874Z,99.90
2019-04-07T19:24:19.605Z,99.90
2019-04-07T19:27:16.087Z,99.90
2019-04-07T19:29:58.052Z,99.90
2019-04-07T19:32:46.425Z,99.90
2019-04-07T19:35:39.834Z,99.90
2019-04-07T19:38:14.280Z,99.90
2019-04-07T19:41:13.335Z,99.90
2019-04-07T19:44:07.855Z,99.90
2019-04-07T19:46:54.509Z,99.90
2019-04-07T19:49:43.141Z,99.90
2019-04-07T19:52:38.505Z,99.90
2019-04-07T19:55:26.245Z,99.90
2019-04-07T19:58:12.310Z,99.90
2019-04-07T20:01:01.594Z,99.90
2019-04-07T20:04:08.143Z,99.90
2019-04-07T20:06:59.629Z,99.90
2019-04-07T20:09:48.348Z,99.90
2019-04-07T20:12:44.027Z,99.90
2019-04-07T20:15:36.512Z,99.90
2019-04-07T20:18:25.556Z,99.90
2019-04-07T20:21:34.873Z,99.90
2019-04-07T20:24:11.304Z,99.90
2019-04-07T20:27:08.815Z,99.90
2019-04-07T20:29:45.023Z,99.90
2019-04-07T20:32:34.768Z,99.90
2019-04-07T20:35:25.834Z,99.90
2019-04-07T20:38:20.307Z,99.90
2019-04-07T20:41:11.825Z,99.90
2019-04-07T20:43:48.422Z,99.90
2019-04-07T20:46:45.783Z,99.90
2019-04-07T20:49:40.254Z,99.90
2019-04-07T20:52:34.168Z,99.90
2019-04-07T20:55:21.304Z,99.90
2019-04-07T20:58:24.020Z,99.90
2019-04-07T21:01:18.728Z,99.90
2019-04-07T21:04:04.370Z,99.90
2019-04-07T21:07:11.178Z,99.90
2019-04-07T21:10:04.533Z,99.90
2019-04-07T21:12:40.083Z,99.90
2019-04-07T21:15:30.387Z,99.90
2019-04-07T21:18:17.906Z,99.90
2019-04-07T21:20:56.793Z,99.90
2019-04-07T21:23:46.184Z,99.90
2019-04-07T21:26:30.923Z,99.90
2019-04-07T21:29:12.968Z,99.90
2019-04-07T21:32:01.492Z,99.90
2019-04-07T21:34:49.190Z,99.90
2019-04-07T21:37:46.826Z,99.90
2019-04-07T21:40:35.268Z,99.90
2019-04-07T21:43:14.154Z,99.90
2019-04-07T21:45:58.838Z,99.90
2019-04-07T21:48:45.717Z,99.90
2019-04-07T21:51:35.233Z,99.90
2019-04-07T21:54:09.838Z,99.90
2019-04-07T21:57:11.029Z,99.90
2019-04-07T21:59:47.912Z,99.90
2019-04-07T22:02:27.516Z,99.90
2019-04-07T22:05:19.887Z,99.90
2019-04-07T22:08:08.005Z,99.90
2019-04-07T22:10:33.996Z,99.90
2019-04-07T22:13:04.903Z,99.90
2019-04-07T22:15:42.997Z,99.90
2019-04-07T22:18:08.548Z,99.90
2019-04-07T22:20:36.954Z,99.90
2019-04-07T22:23:09.332Z,99.90
2019-04-07T22:25:47.163Z,99.90
2019-04-07T22:28:16.662Z,99.90
2019-04-07T22:30:46.683Z,99.90
2019-04-07T22:33:15.985Z,99.90
2019-04-07T22:35:45.345Z,99.90
2019-04-07T22:38:14.973Z,99.90
2019-04-07T22:40:44.343Z,99.90
2019-04-07T22:43:16.699Z,99.90
2019-04-07T22:45:56.378Z,99.90
2019-04-07T22:48:15.676Z,99.90
2019-04-07T22:50:45.416Z,99.90
2019-04-07T22:53:14.859Z,99.90
2019-04-07T22:55:44.167Z,99.90
2019-04-07T22:58:13.893Z,99.90
2019-04-07T23:00:43.310Z,99.90
2019-04-07T23:03:12.460Z,99.90
2019-04-07T23:05:41.735Z,99.90
2019-04-07T23:08:10.909Z,99.90
2019-04-07T23:10:40.806Z,99.90
2019-04-07T23:13:10.074Z,99.90
2019-04-07T23:15:44.321Z,99.90
2019-04-07T23:18:10.146Z,99.90
2019-04-07T23:20:39.671Z,99.90
2019-04-07T23:23:08.923Z,99.90
2019-04-07T23:25:38.557Z,99.90
2019-04-07T23:28:08.230Z,99.90
2019-04-07T23:30:38.659Z,99.90
2019-04-07T23:33:08.371Z,99.90
2019-04-07T23:35:38.093Z,99.90
2019-04-07T23:38:07.910Z,99.90
2019-04-07T23:40:37.766Z,99.90
2019-04-07T23:43:07.464Z,99.90
2019-04-07T23:45:37.807Z,99.90
2019-04-07T23:48:08.287Z,99.90
2019-04-07T23:50:37.667Z,99.90
2019-04-07T23:53:43.519Z,99.90
2019-04-07T23:56:12.784Z,99.90
2019-04-07T23:58:42.044Z,99.90
